Time;durP1;ratioP1;P1;durP2;ratioP2;P2;SDS_P1;SDS_P2;PMS_P1;PMS_P2;Temp;Humidity;BMP_temperature;BMP_pressure;BME280_temperature;BME280_humidity;BME280_pressure;Samples;Min_cycle;Max_cycle;Signal;HPM_P1;HPM_P2
2022/01/28 00:01:42;;;;;;;24.05;10.38;;;;;;;;;;10447034;28;20857;-63
2022/01/28 00:06:43;;;;;;;18.75;9.93;;;;;;;;;;10450979;28;20021;-65
2022/01/28 00:11:43;;;;;;;22.73;10.00;;;;;;;;;;10446669;28;20029;-64
2022/01/28 00:38:04;;;;;;;15.02;9.07;;;;;;;;;;10449510;28;20032;-64
2022/01/28 00:43:05;;;;;;;16.55;9.20;;;;;;;;;;10455668;28;20037;-64
2022/01/28 00:48:05;;;;;;;18.08;9.43;;;;;;;;;;10458050;28;20036;-64
2022/01/28 00:53:06;;;;;;;12.60;8.52;;;;;;;;;;10456991;28;20057;-63
2022/01/28 00:58:06;;;;;;;23.37;9.30;;;;;;;;;;10457048;28;20492;-63
2022/01/28 01:03:07;;;;;;;17.17;8.77;;;;;;;;;;10457364;28;20454;-64
2022/01/28 01:08:08;;;;;;;16.05;8.98;;;;;;;;;;10453566;28;20028;-63
2022/01/28 01:13:08;;;;;;;12.75;8.98;;;;;;;;;;10456453;28;20059;-65
2022/01/28 01:18:17;;;;;;;15.05;8.75;;;;;;;;;;10453679;28;20495;-64
2022/01/28 01:23:27;;;;;;;20.33;8.73;;;;;;;;;;10456161;28;20025;-65
2022/01/28 01:28:32;;;;;;;15.65;8.55;;;;;;;;;;10428409;28;20449;-65
2022/01/28 01:33:39;;;;;;;14.13;8.38;;;;;;;;;;10421725;28;20059;-65
2022/01/28 01:38:41;;;;;;;13.43;8.57;;;;;;;;;;10421754;28;20202;-65
2022/01/28 01:44:08;;;;;;;12.85;8.48;;;;;;;;;;10421578;28;20040;-66
2022/01/28 01:54:28;;;;;;;19.30;8.45;;;;;;;;;;10420249;28;20033;-64
2022/01/28 01:59:29;;;;;;;14.98;9.07;;;;;;;;;;10421091;28;20028;-64
2022/01/28 02:04:29;;;;;;;9.55;7.40;;;;;;;;;;10420854;28;20652;-65
2022/01/28 02:09:30;;;;;;;12.70;8.23;;;;;;;;;;10418785;28;20025;-64
2022/01/28 02:14:30;;;;;;;11.38;8.02;;;;;;;;;;10420207;28;20417;-64
2022/01/28 02:19:31;;;;;;;10.10;7.40;;;;;;;;;;10416710;28;20028;-64
2022/01/28 02:24:39;;;;;;;12.35;8.30;;;;;;;;;;10416495;28;20430;-65
2022/01/28 02:29:41;;;;;;;13.07;8.35;;;;;;;;;;10442365;28;20041;-64
2022/01/28 02:34:42;;;;;;;15.00;7.93;;;;;;;;;;10452023;28;20433;-65
2022/01/28 02:39:42;;;;;;;13.20;7.80;;;;;;;;;;10452861;28;20048;-65
2022/01/28 02:49:44;;;;;;;16.27;8.63;;;;;;;;;;10452475;28;20072;-65
2022/01/28 02:54:47;;;;;;;14.98;8.55;;;;;;;;;;10452615;28;20036;-65
2022/01/28 02:59:48;;;;;;;10.57;7.60;;;;;;;;;;10451860;28;20052;-64
2022/01/28 03:10:24;;;;;;;15.20;8.03;;;;;;;;;;10451707;28;20434;-64
2022/01/28 03:15:18;;;;;;;13.98;7.80;;;;;;;;;;10451194;28;20503;-64
2022/01/28 03:25:19;;;;;;;13.10;8.37;;;;;;;;;;10448339;28;20480;-63
2022/01/28 03:30:20;;;;;;;13.10;7.67;;;;;;;;;;10447425;28;20442;-64
2022/01/28 03:35:20;;;;;;;11.85;7.38;;;;;;;;;;10451585;28;20043;-64
2022/01/28 03:40:21;;;;;;;13.52;7.50;;;;;;;;;;10450890;28;20050;-63
2022/01/28 03:45:21;;;;;;;9.57;7.67;;;;;;;;;;10450353;28;20082;-64
2022/01/28 03:50:22;;;;;;;16.77;8.83;;;;;;;;;;10449791;28;20462;-64
2022/01/28 03:55:22;;;;;;;11.18;7.90;;;;;;;;;;10449754;28;20466;-65
2022/01/28 04:00:26;;;;;;;13.67;8.67;;;;;;;;;;10449945;28;20021;-64
2022/01/28 04:16:04;;;;;;;12.40;8.90;;;;;;;;;;10448754;28;20458;-64
2022/01/28 04:21:04;;;;;;;13.90;8.63;;;;;;;;;;10449843;28;20384;-64
2022/01/28 04:26:04;;;;;;;14.03;8.57;;;;;;;;;;10449137;28;20112;-64
2022/01/28 04:31:05;;;;;;;12.93;8.23;;;;;;;;;;10442945;28;20021;-64
2022/01/28 04:36:08;;;;;;;12.40;8.23;;;;;;;;;;10447975;28;20029;-64
2022/01/28 04:41:21;;;;;;;12.00;8.07;;;;;;;;;;10448660;28;20798;-64
2022/01/28 04:46:32;;;;;;;13.55;9.20;;;;;;;;;;10449704;28;20339;-64
2022/01/28 04:57:05;;;;;;;15.48;9.43;;;;;;;;;;10449486;28;20025;-64
2022/01/28 05:07:54;;;;;;;12.15;8.75;;;;;;;;;;10448820;28;20115;-64
2022/01/28 05:28:23;;;;;;;11.32;8.10;;;;;;;;;;10451485;28;20108;-65
2022/01/28 05:33:23;;;;;;;13.18;7.88;;;;;;;;;;10449220;28;20040;-64
2022/01/28 05:38:24;;;;;;;15.77;8.00;;;;;;;;;;10455349;28;20028;-65
2022/01/28 05:43:24;;;;;;;12.80;8.33;;;;;;;;;;10454922;28;20043;-64
2022/01/28 05:48:24;;;;;;;10.80;7.57;;;;;;;;;;10455637;28;20453;-64
2022/01/28 05:53:25;;;;;;;8.50;6.97;;;;;;;;;;10454494;28;20396;-65
2022/01/28 05:58:25;;;;;;;12.57;7.82;;;;;;;;;;10455144;28;20025;-65
2022/01/28 06:03:26;;;;;;;10.13;6.82;;;;;;;;;;10454698;28;20025;-66
2022/01/28 06:08:26;;;;;;;10.40;7.70;;;;;;;;;;10454602;28;20029;-66
2022/01/28 06:13:26;;;;;;;11.23;7.50;;;;;;;;;;10453948;28;20458;-66
2022/01/28 06:18:27;;;;;;;11.60;7.10;;;;;;;;;;10453401;28;20104;-67
2022/01/28 06:23:27;;;;;;;25.57;7.70;;;;;;;;;;10453330;28;20376;-66
2022/01/28 06:28:28;;;;;;;28.60;9.52;;;;;;;;;;10453540;28;20472;-62
2022/01/28 06:33:28;;;;;;;19.58;10.32;;;;;;;;;;10448307;28;20285;-61
2022/01/28 06:38:29;;;;;;;20.77;11.38;;;;;;;;;;10448783;28;20025;-64
2022/01/28 06:43:29;;;;;;;19.85;12.60;;;;;;;;;;10452629;28;20083;-62
2022/01/28 06:48:30;;;;;;;22.08;13.18;;;;;;;;;;10451960;28;20060;-61
2022/01/28 06:53:30;;;;;;;25.73;13.45;;;;;;;;;;10451413;28;20040;-60
2022/01/28 06:58:31;;;;;;;24.70;12.60;;;;;;;;;;10451869;28;20025;-61
2022/01/28 07:03:31;;;;;;;31.07;13.07;;;;;;;;;;10451738;28;20521;-62
2022/01/28 07:08:31;;;;;;;30.17;13.57;;;;;;;;;;10451041;28;20435;-62
2022/01/28 07:13:32;;;;;;;29.20;13.80;;;;;;;;;;10450988;28;20036;-59
2022/01/28 07:18:32;;;;;;;26.60;15.23;;;;;;;;;;10451246;28;20431;-61
2022/01/28 07:23:32;;;;;;;28.87;16.10;;;;;;;;;;10449313;28;20056;-61
2022/01/28 07:28:34;;;;;;;31.70;16.35;;;;;;;;;;10450142;28;20094;-61
2022/01/28 07:33:35;;;;;;;29.60;18.08;;;;;;;;;;10450233;28;20090;-65
2022/01/28 07:38:35;;;;;;;34.35;17.52;;;;;;;;;;10447451;28;20056;-67
2022/01/28 07:43:39;;;;;;;28.70;16.73;;;;;;;;;;10446480;28;20029;-61
2022/01/28 07:48:39;;;;;;;33.00;17.08;;;;;;;;;;10448320;28;20029;-67
2022/01/28 07:53:40;;;;;;;34.90;17.63;;;;;;;;;;10448677;28;20037;-62
2022/01/28 07:58:41;;;;;;;28.20;17.27;;;;;;;;;;10447751;28;20021;-64
2022/01/28 08:03:41;;;;;;;33.85;17.95;;;;;;;;;;10448111;28;20412;-62
2022/01/28 08:08:41;;;;;;;28.30;16.30;;;;;;;;;;10449219;28;20028;-67
2022/01/28 08:13:42;;;;;;;29.03;16.37;;;;;;;;;;10448613;28;20541;-66
2022/01/28 08:18:42;;;;;;;29.50;17.10;;;;;;;;;;10448696;28;20798;-66
2022/01/28 08:23:43;;;;;;;25.30;15.63;;;;;;;;;;10448645;28;20025;-66
2022/01/28 08:28:43;;;;;;;26.73;15.82;;;;;;;;;;10449696;28;20431;-66
2022/01/28 08:33:43;;;;;;;25.45;16.25;;;;;;;;;;10448669;28;20056;-67
2022/01/28 08:38:45;;;;;;;25.20;15.97;;;;;;;;;;10448010;28;20027;-66
2022/01/28 08:43:47;;;;;;;28.98;16.60;;;;;;;;;;10444155;28;20466;-67
2022/01/28 08:48:47;;;;;;;26.80;16.25;;;;;;;;;;10447627;28;20021;-67
2022/01/28 08:53:48;;;;;;;26.77;16.33;;;;;;;;;;10444257;28;20041;-65
2022/01/28 08:58:48;;;;;;;28.00;14.93;;;;;;;;;;10447876;28;20414;-61
2022/01/28 09:03:49;;;;;;;27.20;15.67;;;;;;;;;;10454388;28;20029;-66
2022/01/28 09:08:53;;;;;;;25.48;14.95;;;;;;;;;;10457236;28;20473;-65
2022/01/28 09:13:55;;;;;;;24.13;15.00;;;;;;;;;;10456512;28;20029;-67
2022/01/28 09:18:56;;;;;;;28.95;14.63;;;;;;;;;;10456654;28;20022;-66
2022/01/28 09:23:56;;;;;;;23.10;14.50;;;;;;;;;;10456290;28;20029;-66
2022/01/28 09:28:58;;;;;;;23.07;15.13;;;;;;;;;;10454181;28;20493;-67
2022/01/28 09:33:58;;;;;;;27.45;15.10;;;;;;;;;;10454121;28;20477;-67
2022/01/28 09:38:59;;;;;;;24.48;14.57;;;;;;;;;;10454321;28;20028;-66
2022/01/28 09:44:02;;;;;;;24.52;15.00;;;;;;;;;;10454183;28;20033;-66
2022/01/28 09:49:02;;;;;;;24.92;15.98;;;;;;;;;;10452423;28;20071;-66
2022/01/28 09:54:03;;;;;;;26.95;14.98;;;;;;;;;;10453129;28;20041;-65
2022/01/28 09:59:03;;;;;;;25.90;14.45;;;;;;;;;;10451438;28;20106;-65
2022/01/28 10:04:06;;;;;;;26.77;15.03;;;;;;;;;;10454418;28;20426;-66
2022/01/28 10:09:10;;;;;;;24.05;14.35;;;;;;;;;;10454809;28;20537;-66
2022/01/28 10:14:17;;;;;;;27.92;15.73;;;;;;;;;;10452693;28;20476;-66
2022/01/28 10:19:17;;;;;;;24.08;15.00;;;;;;;;;;10453815;28;20025;-67
2022/01/28 10:24:24;;;;;;;26.47;15.43;;;;;;;;;;10453605;28;20029;-66
2022/01/28 10:29:32;;;;;;;23.60;14.57;;;;;;;;;;10453784;28;20457;-67
2022/01/28 10:34:49;;;;;;;24.00;15.50;;;;;;;;;;10453738;28;20075;-66
2022/01/28 10:40:11;;;;;;;29.40;15.02;;;;;;;;;;10452979;28;20044;-67
2022/01/28 10:45:14;;;;;;;22.23;14.48;;;;;;;;;;10452105;28;20473;-67
2022/01/28 10:50:34;;;;;;;23.42;15.05;;;;;;;;;;10451334;28;20041;-66
2022/01/28 10:55:40;;;;;;;25.15;14.63;;;;;;;;;;10451833;28;20263;-66
2022/01/28 11:00:42;;;;;;;20.05;14.95;;;;;;;;;;10448267;28;20029;-67
2022/01/28 11:05:46;;;;;;;22.40;14.55;;;;;;;;;;10448115;28;20036;-66
2022/01/28 11:10:46;;;;;;;21.23;14.18;;;;;;;;;;10451746;28;20381;-66
2022/01/28 11:15:47;;;;;;;20.77;13.23;;;;;;;;;;10449847;28;20021;-65
2022/01/28 11:20:53;;;;;;;22.67;13.85;;;;;;;;;;10451463;28;20556;-66
2022/01/28 11:26:04;;;;;;;21.60;13.35;;;;;;;;;;10450103;28;20029;-66
2022/01/28 11:31:07;;;;;;;21.30;14.18;;;;;;;;;;10448304;28;20021;-65
2022/01/28 11:36:07;;;;;;;17.50;13.40;;;;;;;;;;10450448;28;20029;-65
2022/01/28 11:41:11;;;;;;;20.80;13.70;;;;;;;;;;10450090;28;20384;-65
2022/01/28 11:46:16;;;;;;;21.25;13.20;;;;;;;;;;10450223;28;20438;-66
2022/01/28 11:51:24;;;;;;;21.70;12.93;;;;;;;;;;10448433;28;20381;-66
2022/01/28 11:56:25;;;;;;;19.42;12.35;;;;;;;;;;10449819;28;20021;-66
2022/01/28 12:01:35;;;;;;;21.42;12.95;;;;;;;;;;10450511;28;20132;-66
2022/01/28 12:06:38;;;;;;;18.52;12.82;;;;;;;;;;10447154;28;20036;-67
2022/01/28 12:11:45;;;;;;;19.85;13.55;;;;;;;;;;10449885;28;20029;-67
2022/01/28 12:16:47;;;;;;;22.23;13.25;;;;;;;;;;10444918;28;20071;-67
2022/01/28 12:22:03;;;;;;;17.27;12.30;;;;;;;;;;10448895;28;20079;-66
2022/01/28 12:27:13;;;;;;;18.90;12.93;;;;;;;;;;10449183;28;20077;-66
2022/01/28 12:32:21;;;;;;;21.33;13.77;;;;;;;;;;10448908;28;20044;-64
2022/01/28 12:37:22;;;;;;;18.40;12.63;;;;;;;;;;10452423;28;20108;-66
2022/01/28 12:42:23;;;;;;;21.23;12.95;;;;;;;;;;10456831;28;20031;-66
2022/01/28 12:47:25;;;;;;;18.42;13.00;;;;;;;;;;10455830;28;20417;-65
2022/01/28 12:52:25;;;;;;;23.73;13.35;;;;;;;;;;10457228;28;20053;-66
2022/01/28 12:57:26;;;;;;;17.17;12.40;;;;;;;;;;10457940;28;20022;-67
2022/01/28 13:02:32;;;;;;;21.83;12.75;;;;;;;;;;10456949;28;20446;-67
2022/01/28 13:13:07;;;;;;;24.17;13.40;;;;;;;;;;10455843;28;20021;-67
2022/01/28 13:18:08;;;;;;;19.02;12.23;;;;;;;;;;10452643;28;20110;-66
2022/01/28 13:23:11;;;;;;;21.02;12.52;;;;;;;;;;10455063;28;20090;-67
2022/01/28 13:28:13;;;;;;;19.73;12.90;;;;;;;;;;10453401;28;20033;-65
2022/01/28 13:33:13;;;;;;;21.75;11.93;;;;;;;;;;10454106;28;20095;-65
2022/01/28 13:38:19;;;;;;;18.33;12.07;;;;;;;;;;10454931;28;20342;-67
2022/01/28 13:43:22;;;;;;;18.23;12.20;;;;;;;;;;10454971;28;20029;-66
2022/01/28 13:48:32;;;;;;;20.40;12.88;;;;;;;;;;10453505;28;20459;-67
2022/01/28 13:59:30;;;;;;;19.75;12.70;;;;;;;;;;10454438;28;20061;-67
2022/01/28 14:04:35;;;;;;;23.50;12.25;;;;;;;;;;10453482;28;20097;-65
2022/01/28 14:09:57;;;;;;;16.92;11.75;;;;;;;;;;10453863;28;20052;-67
2022/01/28 14:15:09;;;;;;;22.45;12.50;;;;;;;;;;10453362;28;20032;-61
2022/01/28 14:20:10;;;;;;;20.17;12.00;;;;;;;;;;10454396;28;20090;-67
2022/01/28 14:25:11;;;;;;;20.25;11.40;;;;;;;;;;10446864;28;20085;-66
2022/01/28 14:30:21;;;;;;;19.90;12.23;;;;;;;;;;10448705;28;20029;-67
2022/01/28 14:35:21;;;;;;;17.80;11.35;;;;;;;;;;10451990;28;20043;-67
2022/01/28 14:40:22;;;;;;;19.70;12.33;;;;;;;;;;10452464;28;20021;-66
2022/01/28 14:45:22;;;;;;;18.77;12.20;;;;;;;;;;10452030;28;20438;-67
2022/01/28 14:50:23;;;;;;;23.17;12.63;;;;;;;;;;10452478;28;20059;-67
2022/01/28 14:55:23;;;;;;;20.80;12.68;;;;;;;;;;10451693;28;20470;-66
2022/01/28 15:00:24;;;;;;;20.40;12.10;;;;;;;;;;10450741;28;20397;-66
2022/01/28 15:05:24;;;;;;;23.60;12.00;;;;;;;;;;10451839;28;20070;-66
2022/01/28 15:15:39;;;;;;;51.55;13.98;;;;;;;;;;10485903;28;20968;-63
2022/01/28 15:20:40;;;;;;;54.67;14.45;;;;;;;;;;10485304;28;20055;-65
2022/01/28 15:25:40;;;;;;;54.08;14.55;;;;;;;;;;10485185;28;20036;-65
2022/01/28 15:36:01;;;;;;;;;;;;;;;;;;10484577;28;20028;-63
2022/01/28 15:41:07;;;;;;;21.60;12.10;;;;;;;;;;10481072;28;20004;-62
2022/01/28 15:46:07;;;;;;;33.03;13.52;;;;;;;;;;10484161;28;20051;-67
2022/01/28 15:51:08;;;;;;;31.17;13.40;;;;;;;;;;10484637;28;20035;-65
2022/01/28 15:56:09;;;;;;;26.63;13.00;;;;;;;;;;10485300;28;20537;-66
2022/01/28 16:01:10;;;;;;;24.83;13.18;;;;;;;;;;10483983;28;20515;-67
2022/01/28 16:06:10;;;;;;;20.27;12.10;;;;;;;;;;10483833;28;20021;-65
2022/01/28 16:21:31;;;;;;;22.77;12.02;;;;;;;;;;10483258;28;20028;-62
2022/01/28 16:26:32;;;;;;;20.02;11.45;;;;;;;;;;10457223;28;20029;-66
2022/01/28 16:31:32;;;;;;;19.05;11.63;;;;;;;;;;10455155;28;20028;-61
2022/01/28 16:36:32;;;;;;;21.87;12.20;;;;;;;;;;10451734;28;20029;-67
2022/01/28 16:41:41;;;;;;;26.83;12.33;;;;;;;;;;10455107;28;20789;-61
2022/01/28 16:46:43;;;;;;;21.70;11.67;;;;;;;;;;10452134;28;20473;-61
2022/01/28 16:51:44;;;;;;;22.70;12.07;;;;;;;;;;10454955;28;20037;-61
2022/01/28 16:56:44;;;;;;;28.15;12.75;;;;;;;;;;10454481;28;20021;-61
2022/01/28 17:01:45;;;;;;;24.58;12.50;;;;;;;;;;10454550;28;20637;-60
2022/01/28 17:06:45;;;;;;;25.83;12.98;;;;;;;;;;10454552;28;20453;-61
2022/01/28 17:11:54;;;;;;;23.73;13.03;;;;;;;;;;10452052;28;20036;-61
2022/01/28 17:16:55;;;;;;;26.40;13.82;;;;;;;;;;10452688;28;20409;-61
2022/01/28 17:21:55;;;;;;;27.85;14.60;;;;;;;;;;10452606;28;20021;-61
2022/01/28 17:26:56;;;;;;;29.20;14.27;;;;;;;;;;10449340;28;20021;-61
2022/01/28 17:31:56;;;;;;;29.50;14.43;;;;;;;;;;10450693;28;20727;-61
2022/01/28 17:36:56;;;;;;;29.47;16.13;;;;;;;;;;10450577;28;20024;-63
2022/01/28 17:41:57;;;;;;;28.83;15.97;;;;;;;;;;10452133;28;20870;-63
2022/01/28 17:46:57;;;;;;;29.33;14.90;;;;;;;;;;10446129;28;20434;-63
2022/01/28 17:51:59;;;;;;;29.27;16.40;;;;;;;;;;10451129;28;20537;-63
2022/01/28 17:56:59;;;;;;;30.63;17.35;;;;;;;;;;10452137;28;20847;-63
2022/01/28 18:01:59;;;;;;;27.23;16.17;;;;;;;;;;10451301;28;20128;-63
2022/01/28 18:07:00;;;;;;;30.17;17.20;;;;;;;;;;10450715;28;20382;-63
2022/01/28 18:12:00;;;;;;;29.63;17.53;;;;;;;;;;10450930;28;20577;-64
2022/01/28 18:17:00;;;;;;;46.40;17.90;;;;;;;;;;10450216;28;20033;-65
2022/01/28 18:22:01;;;;;;;34.60;17.00;;;;;;;;;;10450232;28;20074;-65
2022/01/28 18:27:01;;;;;;;34.15;17.33;;;;;;;;;;10449768;28;20057;-64
2022/01/28 18:32:02;;;;;;;32.47;17.35;;;;;;;;;;10450098;28;20058;-64
2022/01/28 18:37:02;;;;;;;30.90;17.63;;;;;;;;;;10449053;28;20036;-64
2022/01/28 18:42:08;;;;;;;30.73;16.88;;;;;;;;;;10450014;28;20036;-64
2022/01/28 18:47:10;;;;;;;26.17;15.18;;;;;;;;;;10446847;28;20104;-61
2022/01/28 18:52:12;;;;;;;32.35;16.35;;;;;;;;;;10446502;28;20082;-64
2022/01/28 18:57:13;;;;;;;26.20;14.57;;;;;;;;;;10449532;28;20021;-63
2022/01/28 19:02:16;;;;;;;25.27;15.40;;;;;;;;;;10448362;28;20021;-63
2022/01/28 19:07:17;;;;;;;28.60;15.48;;;;;;;;;;10449782;28;20029;-62
2022/01/28 19:12:20;;;;;;;24.85;14.70;;;;;;;;;;10447914;28;20049;-64
2022/01/28 19:17:21;;;;;;;29.33;15.18;;;;;;;;;;10448663;28;20032;-62
2022/01/28 19:22:22;;;;;;;23.45;14.32;;;;;;;;;;10447284;28;20456;-63
2022/01/28 19:27:22;;;;;;;24.90;13.97;;;;;;;;;;10448339;28;20028;-63
2022/01/28 19:32:27;;;;;;;25.30;14.63;;;;;;;;;;10448845;28;20457;-64
2022/01/28 19:37:27;;;;;;;20.48;13.95;;;;;;;;;;10449735;28;20060;-64
2022/01/28 19:42:28;;;;;;;21.77;13.93;;;;;;;;;;10448891;28;20060;-64
2022/01/28 19:47:28;;;;;;;24.73;14.33;;;;;;;;;;10447114;28;20460;-64
2022/01/28 19:52:29;;;;;;;26.33;14.70;;;;;;;;;;10441547;28;20923;-62
2022/01/28 19:57:29;;;;;;;24.67;14.50;;;;;;;;;;10446148;28;20055;-62
2022/01/28 20:02:30;;;;;;;21.10;14.33;;;;;;;;;;10452479;28;20021;-62
2022/01/28 20:07:30;;;;;;;23.58;14.85;;;;;;;;;;10455700;28;20874;-62
2022/01/28 20:12:31;;;;;;;25.50;14.67;;;;;;;;;;10454608;28;20048;-62
2022/01/28 20:17:31;;;;;;;21.45;13.20;;;;;;;;;;10455341;28;20438;-62
2022/01/28 20:22:31;;;;;;;23.70;13.70;;;;;;;;;;10455579;28;20495;-63
2022/01/28 20:27:32;;;;;;;21.27;14.13;;;;;;;;;;10454910;28;20435;-65
2022/01/28 20:32:32;;;;;;;23.80;13.67;;;;;;;;;;10455229;28;20535;-65
2022/01/28 20:37:33;;;;;;;18.13;12.63;;;;;;;;;;10454066;28;20458;-65
2022/01/28 20:42:33;;;;;;;18.10;11.98;;;;;;;;;;10453721;28;20435;-64
2022/01/28 20:47:33;;;;;;;20.17;12.97;;;;;;;;;;10454615;28;20112;-64
2022/01/28 20:52:34;;;;;;;20.07;12.87;;;;;;;;;;10453961;28;20526;-64
2022/01/28 20:57:35;;;;;;;22.73;11.85;;;;;;;;;;10452537;28;20488;-64
2022/01/28 21:02:36;;;;;;;20.63;12.05;;;;;;;;;;10449105;28;20060;-65
2022/01/28 21:07:44;;;;;;;18.92;12.75;;;;;;;;;;10449625;28;20036;-64
2022/01/28 21:12:45;;;;;;;20.20;11.48;;;;;;;;;;10453353;28;20111;-64
2022/01/28 21:17:48;;;;;;;18.73;12.13;;;;;;;;;;10453356;28;20103;-64
2022/01/28 21:22:48;;;;;;;16.60;11.98;;;;;;;;;;10452098;28;20025;-65
2022/01/28 21:27:49;;;;;;;18.17;11.52;;;;;;;;;;10452439;28;20029;-63
2022/01/28 21:32:49;;;;;;;17.23;11.93;;;;;;;;;;10451194;28;20374;-64
2022/01/28 21:37:49;;;;;;;17.10;11.03;;;;;;;;;;10451852;28;20046;-64
2022/01/28 21:42:50;;;;;;;17.70;11.20;;;;;;;;;;10452151;28;20825;-64
2022/01/28 21:47:50;;;;;;;19.10;11.60;;;;;;;;;;10452113;28;20032;-64
2022/01/28 21:52:51;;;;;;;14.98;10.65;;;;;;;;;;10451313;28;20469;-61
2022/01/28 21:57:51;;;;;;;16.30;11.00;;;;;;;;;;10450589;28;20031;-65
2022/01/28 22:02:52;;;;;;;15.30;10.73;;;;;;;;;;10450115;28;20025;-61
2022/01/28 22:07:52;;;;;;;15.82;10.90;;;;;;;;;;10449978;28;20521;-66
2022/01/28 22:12:52;;;;;;;19.45;11.32;;;;;;;;;;10447978;28;20048;-66
2022/01/28 22:17:53;;;;;;;18.27;12.03;;;;;;;;;;10450160;28;20061;-65
2022/01/28 22:22:53;;;;;;;16.27;10.87;;;;;;;;;;10449656;28;20593;-64
2022/01/28 22:27:53;;;;;;;15.73;10.37;;;;;;;;;;10450486;28;20426;-65
2022/01/28 22:32:54;;;;;;;13.73;10.40;;;;;;;;;;10449741;28;20116;-65
2022/01/28 22:37:54;;;;;;;17.17;11.10;;;;;;;;;;10450244;28;20025;-64
2022/01/28 22:42:55;;;;;;;14.93;10.25;;;;;;;;;;10449644;28;20473;-64
2022/01/28 22:47:55;;;;;;;15.68;10.35;;;;;;;;;;10449632;28;20021;-64
2022/01/28 22:52:56;;;;;;;18.83;10.18;;;;;;;;;;10448141;28;20555;-64
2022/01/28 22:57:56;;;;;;;19.90;10.30;;;;;;;;;;10449738;28;20389;-65
2022/01/28 23:02:56;;;;;;;14.93;10.00;;;;;;;;;;10449545;28;20446;-65
2022/01/28 23:07:57;;;;;;;16.47;10.10;;;;;;;;;;10447890;28;20159;-63
2022/01/28 23:12:57;;;;;;;16.03;9.97;;;;;;;;;;10443481;28;20048;-64
2022/01/28 23:17:57;;;;;;;15.50;10.37;;;;;;;;;;10449014;28;20488;-64
2022/01/28 23:22:58;;;;;;;16.60;10.53;;;;;;;;;;10445569;28;20017;-64
2022/01/28 23:27:59;;;;;;;19.27;10.40;;;;;;;;;;10447428;28;20021;-62
2022/01/28 23:32:59;;;;;;;15.77;10.35;;;;;;;;;;10448138;28;20119;-64
2022/01/28 23:38:00;;;;;;;14.00;10.20;;;;;;;;;;10456182;28;20115;-65
2022/01/28 23:43:01;;;;;;;20.42;10.65;;;;;;;;;;10455498;28;20509;-64
2022/01/28 23:48:01;;;;;;;16.83;10.45;;;;;;;;;;10455808;28;20056;-64
2022/01/28 23:53:02;;;;;;;17.95;9.65;;;;;;;;;;10455215;28;20511;-64
2022/01/28 23:58:03;;;;;;;17.10;11.38;;;;;;;;;;10454223;28;20144;-65
